createdAt,value
2019-02-14T00:01:36.275Z,99224.66
2019-02-14T00:04:03.082Z,99224.80
2019-02-14T00:06:30.195Z,99241.88
2019-02-14T00:08:57.129Z,99250.09
2019-02-14T00:11:23.721Z,99255.36
2019-02-14T00:13:50.716Z,99253.84
2019-02-14T00:16:17.337Z,99254.70
2019-02-14T00:18:44.316Z,99253.79
2019-02-14T00:21:11.240Z,99246.75
2019-02-14T00:23:37.844Z,99247.09
2019-02-14T00:26:04.718Z,99247.73
2019-02-14T00:28:31.596Z,99244.55
2019-02-14T00:30:58.400Z,99229.09
2019-02-14T00:33:24.995Z,99238.64
2019-02-14T00:35:51.862Z,99246.20
2019-02-14T00:38:19.857Z,99240.95
2019-02-14T00:40:46.449Z,99244.59
2019-02-14T00:43:13.043Z,99233.15
2019-02-14T00:45:39.737Z,99228.22
2019-02-14T00:48:06.613Z,99233.03
2019-02-14T00:50:33.310Z,99230.95
2019-02-14T00:52:59.921Z,99234.69
2019-02-14T00:55:26.699Z,99233.17
2019-02-14T00:57:53.695Z,99234.69
2019-02-14T01:00:20.417Z,99233.27
2019-02-14T01:02:47.118Z,99241.66
2019-02-14T01:05:13.749Z,99236.34
2019-02-14T01:07:41.440Z,99229.63
2019-02-14T01:10:08.174Z,99228.45
2019-02-14T01:12:35.000Z,99228.69
2019-02-14T01:15:01.893Z,99222.55
2019-02-14T01:17:28.498Z,99222.81
2019-02-14T01:19:55.225Z,99216.14
2019-02-14T01:22:21.860Z,99207.91
2019-02-14T01:24:48.520Z,99195.80
2019-02-14T01:27:15.434Z,99196.46
2019-02-14T01:29:42.454Z,99194.06
2019-02-14T01:32:09.041Z,99183.75
2019-02-14T01:34:36.165Z,99188.01
2019-02-14T01:37:02.821Z,99185.64
2019-02-14T01:39:29.683Z,99185.81
2019-02-14T01:41:56.345Z,99186.23
2019-02-14T01:44:22.994Z,99178.43
2019-02-14T01:46:49.610Z,99184.59
2019-02-14T01:49:16.315Z,99177.69
2019-02-14T01:51:43.252Z,99179.79
2019-02-14T01:54:09.885Z,99175.81
2019-02-14T01:56:36.667Z,99175.24
2019-02-14T01:59:03.586Z,99172.78
2019-02-14T02:01:30.212Z,99165.00
2019-02-14T02:03:56.945Z,99172.52
2019-02-14T02:06:23.759Z,99161.88
2019-02-14T02:08:50.471Z,99154.06
2019-02-14T02:11:17.245Z,99159.31
2019-02-14T02:13:43.862Z,99159.45
2019-02-14T02:16:10.545Z,99156.13
2019-02-14T02:18:37.452Z,99156.31
2019-02-14T02:21:04.103Z,99147.42
2019-02-14T02:23:30.925Z,99140.51
2019-02-14T02:25:57.868Z,99137.23
2019-02-14T02:28:24.521Z,99143.15
2019-02-14T02:30:51.144Z,99136.98
2019-02-14T02:33:18.143Z,99142.94
2019-02-14T02:35:44.755Z,99140.69
2019-02-14T02:38:11.535Z,99146.98
2019-02-14T02:40:38.437Z,99147.94
2019-02-14T02:43:05.043Z,99144.11
2019-02-14T02:45:32.139Z,99146.05
2019-02-14T02:47:58.996Z,99150.79
2019-02-14T02:50:26.116Z,99137.22
2019-02-14T02:52:53.304Z,99148.16
2019-02-14T02:55:20.169Z,99138.61
2019-02-14T02:57:46.895Z,99142.88
2019-02-14T03:00:15.329Z,99138.42
2019-02-14T03:02:42.018Z,99138.16
2019-02-14T03:05:08.921Z,99133.77
2019-02-14T03:07:35.978Z,99126.87
2019-02-14T03:10:02.658Z,99132.13
2019-02-14T03:12:29.452Z,99139.59
2019-02-14T03:14:56.342Z,99138.68
2019-02-14T03:17:23.740Z,99140.59
2019-02-14T03:19:50.655Z,99143.67
2019-02-14T03:22:17.302Z,99134.77
2019-02-14T03:24:45.744Z,99135.95
2019-02-14T03:27:12.442Z,99143.30
2019-02-14T03:29:39.430Z,99146.91
2019-02-14T03:32:06.341Z,99143.83
2019-02-14T03:34:33.111Z,99147.70
2019-02-14T03:37:01.236Z,99147.73
2019-02-14T03:39:27.940Z,99146.00
2019-02-14T03:41:54.565Z,99147.73
2019-02-14T03:44:21.876Z,99145.34
2019-02-14T03:46:48.860Z,99147.00
2019-02-14T03:49:15.998Z,99141.44
2019-02-14T03:51:42.721Z,99147.36
2019-02-14T03:54:09.659Z,99142.46
2019-02-14T03:56:36.620Z,99147.43
2019-02-14T03:59:03.288Z,99148.93
2019-02-14T04:01:29.985Z,99152.32
2019-02-14T04:03:56.819Z,99156.69
2019-02-14T04:06:27.455Z,99156.05
2019-02-14T04:08:52.175Z,99168.02
2019-02-14T04:11:19.001Z,99168.90
2019-02-14T04:13:46.367Z,99167.79
2019-02-14T04:16:13.065Z,99167.59
2019-02-14T04:18:39.809Z,99169.81
2019-02-14T04:21:06.426Z,99170.89
2019-02-14T04:23:33.239Z,99164.75
2019-02-14T04:26:00.247Z,99161.78
2019-02-14T04:28:27.699Z,99161.16
2019-02-14T04:30:54.332Z,99167.66
2019-02-14T04:33:21.206Z,99164.12
2019-02-14T04:35:47.844Z,99168.52
2019-02-14T04:38:14.497Z,99164.19
2019-02-14T04:40:41.279Z,99168.48
2019-02-14T04:45:53.779Z,99164.95
2019-02-14T04:48:23.966Z,99169.31
2019-02-14T04:50:50.816Z,99167.30
2019-02-14T04:53:18.207Z,99166.64
2019-02-14T04:55:46.079Z,99154.91
2019-02-14T04:58:13.871Z,99159.56
2019-02-14T05:00:40.601Z,99151.28
2019-02-14T05:03:07.269Z,99156.01
2019-02-14T05:05:34.060Z,99153.56
2019-02-14T05:08:00.716Z,99158.80
2019-02-14T05:10:27.577Z,99157.14
2019-02-14T05:12:54.205Z,99160.88
2019-02-14T05:15:20.824Z,99158.31
2019-02-14T05:17:47.793Z,99164.95
2019-02-14T05:20:14.368Z,99161.48
2019-02-14T05:22:41.025Z,99163.66
2019-02-14T05:25:07.939Z,99164.83
2019-02-14T05:27:34.850Z,99168.80
2019-02-14T05:30:01.504Z,99175.13
2019-02-14T05:32:28.172Z,99170.14
2019-02-14T05:34:55.083Z,99170.73
2019-02-14T05:37:22.029Z,99170.19
2019-02-14T05:39:49.326Z,99170.14
2019-02-14T05:42:17.461Z,99165.65
2019-02-14T05:44:44.298Z,99172.59
2019-02-14T05:47:11.176Z,99178.67
2019-02-14T05:49:38.123Z,99178.48
2019-02-14T05:52:04.825Z,99178.00
2019-02-14T05:54:31.497Z,99179.34
2019-02-14T05:56:58.263Z,99179.78
2019-02-14T05:59:25.324Z,99184.23
2019-02-14T06:01:52.008Z,99189.77
2019-02-14T06:04:18.710Z,99192.06
2019-02-14T06:06:45.773Z,99195.84
2019-02-14T06:09:12.410Z,99197.72
2019-02-14T06:11:39.153Z,99201.19
2019-02-14T06:14:05.729Z,99204.45
2019-02-14T06:16:32.485Z,99204.53
2019-02-14T06:19:00.221Z,99210.88
2019-02-14T06:21:27.059Z,99207.94
2019-02-14T06:23:53.692Z,99206.51
2019-02-14T06:26:20.753Z,99203.39
2019-02-14T06:28:47.415Z,99202.44
2019-02-14T06:31:14.115Z,99208.10
2019-02-14T06:33:40.874Z,99205.72
2019-02-14T06:36:07.465Z,99217.33
2019-02-14T06:38:34.075Z,99218.53
2019-02-14T06:41:01.083Z,99217.70
2019-02-14T06:43:31.356Z,99228.92
2019-02-14T06:46:05.888Z,99224.80
2019-02-14T06:48:37.055Z,99229.27
2019-02-14T06:51:04.232Z,99236.02
2019-02-14T06:53:31.767Z,99240.69
2019-02-14T06:56:02.876Z,99249.00
2019-02-14T06:58:26.930Z,99254.19
2019-02-14T07:00:53.639Z,99243.81
2019-02-14T07:03:20.341Z,99249.47
2019-02-14T07:05:46.969Z,99246.63
2019-02-14T07:08:13.562Z,99248.66
2019-02-14T07:10:40.396Z,99248.44
2019-02-14T07:13:07.086Z,99240.48
2019-02-14T07:15:33.752Z,99239.94
2019-02-14T07:18:00.903Z,99241.00
2019-02-14T07:20:27.575Z,99244.67
2019-02-14T07:22:54.514Z,99252.98
2019-02-14T07:25:21.140Z,99246.11
2019-02-14T07:27:47.774Z,99251.97
2019-02-14T07:30:14.863Z,99250.56
2019-02-14T07:32:41.707Z,99255.81
2019-02-14T07:35:08.639Z,99256.02
2019-02-14T07:37:35.590Z,99250.54
2019-02-14T07:40:02.210Z,99256.73
2019-02-14T07:42:28.858Z,99256.95
2019-02-14T07:44:55.798Z,99263.10
2019-02-14T07:47:22.779Z,99258.10
2019-02-14T07:49:49.462Z,99259.79
2019-02-14T07:52:16.496Z,99256.72
2019-02-14T07:54:43.441Z,99260.00
2019-02-14T07:59:42.057Z,99266.45
2019-02-14T08:02:09.268Z,99261.20
2019-02-14T08:04:36.103Z,99256.45
2019-02-14T08:07:03.441Z,99259.15
2019-02-14T08:09:31.627Z,99261.43
2019-02-14T08:11:58.309Z,99259.27
2019-02-14T08:14:25.384Z,99253.28
2019-02-14T08:17:05.984Z,99253.02
2019-02-14T08:19:32.720Z,99259.00
2019-02-14T08:21:59.545Z,99254.36
2019-02-14T08:24:26.393Z,99256.96
2019-02-14T08:26:53.418Z,99259.76
2019-02-14T08:29:20.396Z,99268.60
2019-02-14T08:31:47.736Z,99269.88
2019-02-14T08:34:14.521Z,99267.23
2019-02-14T08:36:41.581Z,99264.78
2019-02-14T08:39:08.708Z,99272.05
2019-02-14T08:41:35.902Z,99271.84
2019-02-14T08:44:03.002Z,99275.90
2019-02-14T08:46:29.684Z,99272.56
2019-02-14T08:48:56.828Z,99274.14
2019-02-14T08:51:23.669Z,99269.70
2019-02-14T08:53:50.658Z,99268.48
2019-02-14T08:56:17.934Z,99274.83
2019-02-14T08:58:44.849Z,99272.53
2019-02-14T09:01:11.839Z,99270.44
2019-02-14T09:03:38.804Z,99259.95
2019-02-14T09:06:05.830Z,99270.19
2019-02-14T09:08:32.866Z,99268.94
2019-02-14T09:10:59.853Z,99267.41
2019-02-14T09:13:26.519Z,99261.72
2019-02-14T09:15:53.166Z,99268.59
2019-02-14T09:18:20.131Z,99270.05
2019-02-14T09:20:47.154Z,99269.93
2019-02-14T09:23:14.773Z,99271.27
2019-02-14T09:25:41.822Z,99272.30
2019-02-14T09:28:08.461Z,99273.55
2019-02-14T09:30:35.442Z,99265.75
2019-02-14T09:33:02.691Z,99265.84
2019-02-14T09:35:29.375Z,99265.58
2019-02-14T09:38:03.098Z,99265.17
2019-02-14T09:40:24.705Z,99268.78
2019-02-14T09:42:51.598Z,99264.31
2019-02-14T09:45:18.448Z,99260.83
2019-02-14T09:47:45.136Z,99260.64
2019-02-14T09:50:11.817Z,99265.25
2019-02-14T09:52:38.753Z,99254.89
2019-02-14T09:55:05.609Z,99252.44
2019-02-14T09:57:32.880Z,99245.38
2019-02-14T09:59:59.707Z,99243.56
2019-02-14T10:04:59.087Z,99247.18
2019-02-14T10:07:25.834Z,99244.91
2019-02-14T10:09:52.889Z,99244.27
2019-02-14T10:12:19.910Z,99244.59
2019-02-14T10:14:46.899Z,99233.45
2019-02-14T10:17:21.841Z,99226.00
2019-02-14T10:19:41.987Z,99221.34
2019-02-14T10:22:08.667Z,99217.52
2019-02-14T10:24:35.361Z,99216.20
2019-02-14T10:27:03.452Z,99208.78
2019-02-14T10:29:30.273Z,99206.75
2019-02-14T10:31:57.182Z,99207.70
2019-02-14T10:34:24.069Z,99207.45
2019-02-14T10:36:50.762Z,99208.56
2019-02-14T10:39:17.426Z,99210.23
2019-02-14T10:41:44.427Z,99210.52
2019-02-14T10:44:11.436Z,99199.91
2019-02-14T10:46:38.352Z,99203.92
2019-02-14T10:49:05.199Z,99202.28
2019-02-14T10:51:33.550Z,99195.86
2019-02-14T10:54:00.400Z,99189.23
2019-02-14T10:56:27.388Z,99193.00
2019-02-14T10:58:54.313Z,99181.28
2019-02-14T11:01:21.507Z,99182.62
2019-02-14T11:03:48.468Z,99171.67
2019-02-14T11:06:15.683Z,99170.81
2019-02-14T11:08:42.586Z,99166.58
2019-02-14T11:11:09.740Z,99166.97
2019-02-14T11:13:36.540Z,99163.45
2019-02-14T11:16:03.907Z,99159.73
2019-02-14T11:18:30.786Z,99152.48
2019-02-14T11:20:57.623Z,99151.99
2019-02-14T11:23:24.293Z,99150.80
2019-02-14T11:25:50.903Z,99141.94
2019-02-14T11:28:17.747Z,99149.64
2019-02-14T11:30:44.407Z,99150.03
2019-02-14T11:33:11.366Z,99154.86
2019-02-14T11:35:38.112Z,99160.02
2019-02-14T11:38:05.354Z,99153.52
2019-02-14T11:40:31.967Z,99142.24
2019-02-14T11:42:58.791Z,99130.74
2019-02-14T11:45:25.479Z,99131.25
2019-02-14T11:47:52.287Z,99132.72
2019-02-14T11:50:19.063Z,99129.16
2019-02-14T11:52:45.695Z,99128.73
2019-02-14T11:55:12.289Z,99129.75
2019-02-14T11:57:39.247Z,99119.82
2019-02-14T12:00:06.464Z,99119.63
2019-02-14T12:02:34.551Z,99111.84
2019-02-14T12:05:01.288Z,99111.26
2019-02-14T12:07:27.920Z,99105.83
2019-02-14T12:09:54.609Z,99108.28
2019-02-14T12:12:22.965Z,99099.95
2019-02-14T12:14:50.014Z,99109.83
2019-02-14T12:17:16.800Z,99107.63
2019-02-14T12:19:43.705Z,99102.16
2019-02-14T12:22:11.305Z,99100.53
2019-02-14T12:24:38.232Z,99098.55
2019-02-14T12:27:05.013Z,99096.91
2019-02-14T12:29:31.739Z,99103.55
2019-02-14T12:31:58.716Z,99096.41
2019-02-14T12:34:25.645Z,99098.81
2019-02-14T12:36:52.260Z,99096.95
2019-02-14T12:39:19.029Z,99091.68
2019-02-14T12:41:45.917Z,99093.09
2019-02-14T12:44:12.618Z,99081.27
2019-02-14T12:46:39.270Z,99081.93
2019-02-14T12:49:06.056Z,99076.90
2019-02-14T12:51:32.699Z,99079.72
2019-02-14T12:53:59.319Z,99074.50
2019-02-14T12:56:26.282Z,99065.97
2019-02-14T12:58:53.539Z,99060.89
2019-02-14T13:01:21.910Z,99058.38
2019-02-14T13:03:48.994Z,99061.21
2019-02-14T13:06:15.661Z,99066.57
2019-02-14T13:08:42.305Z,99066.34
2019-02-14T13:11:09.481Z,99061.50
2019-02-14T13:13:36.653Z,99060.73
2019-02-14T13:16:03.483Z,99051.56
2019-02-14T13:18:30.453Z,99047.81
2019-02-14T13:20:57.107Z,99039.72
2019-02-14T13:23:23.804Z,99038.95
2019-02-14T13:25:50.757Z,99041.11
2019-02-14T13:28:17.781Z,99043.30
2019-02-14T13:30:44.715Z,99052.39
2019-02-14T13:33:11.585Z,99048.22
2019-02-14T13:35:38.282Z,99049.44
2019-02-14T13:38:06.052Z,99048.41
2019-02-14T13:40:32.687Z,99049.55
2019-02-14T13:42:59.747Z,99050.16
2019-02-14T13:45:26.775Z,99054.39
2019-02-14T13:47:54.062Z,99056.13
2019-02-14T13:50:21.240Z,99059.55
2019-02-14T13:52:48.077Z,99050.95
2019-02-14T13:55:15.087Z,99056.34
2019-02-14T13:57:42.163Z,99056.86
2019-02-14T14:00:09.509Z,99050.75
2019-02-14T14:02:36.326Z,99052.05
2019-02-14T14:05:03.100Z,99058.25
2019-02-14T14:07:39.925Z,99051.88
2019-02-14T14:09:58.600Z,99054.55
2019-02-14T14:12:25.560Z,99071.19
2019-02-14T14:14:52.303Z,99074.02
2019-02-14T14:17:19.271Z,99073.38
2019-02-14T14:19:46.630Z,99077.61
2019-02-14T14:22:13.595Z,99076.83
2019-02-14T14:24:40.480Z,99079.37
2019-02-14T14:27:07.665Z,99066.16
2019-02-14T14:29:34.255Z,99066.96
2019-02-14T14:32:01.136Z,99062.72
2019-02-14T14:34:28.357Z,99063.90
2019-02-14T14:36:55.050Z,99054.33
2019-02-14T14:39:21.962Z,99045.29
2019-02-14T14:41:48.854Z,99045.23
2019-02-14T14:44:15.969Z,99042.38
2019-02-14T14:46:42.695Z,99041.59
2019-02-14T14:49:11.799Z,99052.25
2019-02-14T14:51:38.783Z,99049.31
2019-02-14T14:54:06.886Z,99051.08
2019-02-14T14:56:33.857Z,99049.41
2019-02-14T14:59:00.655Z,99042.08
2019-02-14T15:01:27.436Z,99044.04
2019-02-14T15:03:54.785Z,99038.51
2019-02-14T15:06:22.012Z,99046.20
2019-02-14T15:08:48.791Z,99041.55
2019-02-14T15:11:15.847Z,99036.56
2019-02-14T15:13:43.591Z,99024.98
2019-02-14T15:16:10.784Z,99022.63
2019-02-14T15:18:37.510Z,99018.72
2019-02-14T15:21:04.545Z,99019.48
2019-02-14T15:23:32.195Z,99020.77
2019-02-14T15:25:58.909Z,99017.17
2019-02-14T15:28:26.478Z,99022.75
2019-02-14T15:30:53.291Z,99021.67
2019-02-14T15:33:21.483Z,99017.75
2019-02-14T15:35:48.142Z,99018.97
2019-02-14T15:38:15.027Z,99023.38
2019-02-14T15:40:42.766Z,99014.82
2019-02-14T15:43:09.690Z,99017.92
2019-02-14T15:45:37.619Z,99016.16
2019-02-14T15:48:04.402Z,99015.67
2019-02-14T15:50:32.162Z,99008.51
2019-02-14T15:52:59.301Z,99011.66
2019-02-14T15:55:26.301Z,99009.84
2019-02-14T15:57:53.601Z,99006.87
2019-02-14T16:00:20.971Z,99010.17
2019-02-14T16:02:50.130Z,99016.63
2019-02-14T16:05:17.333Z,99007.55
2019-02-14T16:07:45.583Z,99002.22
2019-02-14T16:10:18.698Z,98997.83
2019-02-14T16:12:43.269Z,98997.63
2019-02-14T16:15:09.547Z,98998.11
2019-02-14T16:17:37.950Z,99000.52
2019-02-14T16:20:04.938Z,99003.01
2019-02-14T16:22:31.769Z,99002.25
2019-02-14T16:24:59.632Z,99004.79
2019-02-14T16:27:26.853Z,99012.73
2019-02-14T16:32:40.069Z,99012.78
2019-02-14T16:35:08.419Z,99019.42
2019-02-14T16:37:35.026Z,99017.93
2019-02-14T16:40:02.141Z,99026.19
2019-02-14T16:42:29.221Z,99021.23
2019-02-14T16:44:58.753Z,99017.94
2019-02-14T16:47:29.601Z,99015.47
2019-02-14T16:49:58.440Z,99018.41
2019-02-14T16:52:28.898Z,99023.59
2019-02-14T16:54:55.938Z,99025.84
2019-02-14T16:57:23.762Z,99032.67
2019-02-14T16:59:52.323Z,99038.44
2019-02-14T17:02:19.327Z,99043.09
2019-02-14T17:04:46.448Z,99042.41
2019-02-14T17:07:13.267Z,99039.91
2019-02-14T17:09:39.893Z,99040.26
2019-02-14T17:12:06.508Z,99037.84
2019-02-14T17:14:33.330Z,99038.33
2019-02-14T17:16:59.968Z,99035.45
2019-02-14T17:19:26.737Z,99040.23
2019-02-14T17:21:53.594Z,99039.39
2019-02-14T17:24:20.497Z,99046.16
2019-02-14T17:26:47.468Z,99049.09
2019-02-14T17:29:15.197Z,99042.45
2019-02-14T17:31:42.106Z,99045.91
2019-02-14T17:34:09.030Z,99049.14
2019-02-14T17:36:35.691Z,99054.55
2019-02-14T17:39:02.343Z,99047.50
2019-02-14T17:41:28.928Z,99051.53
2019-02-14T17:43:57.729Z,99057.08
2019-02-14T17:46:26.447Z,99055.58
2019-02-14T17:48:57.556Z,99060.73
2019-02-14T17:51:26.182Z,99058.99
2019-02-14T17:53:53.097Z,99061.16
2019-02-14T17:56:20.340Z,99071.15
2019-02-14T17:58:49.275Z,99067.92
2019-02-14T18:01:15.974Z,99072.81
2019-02-14T18:03:43.184Z,99067.70
2019-02-14T18:06:10.070Z,99077.41
2019-02-14T18:08:37.054Z,99074.61
2019-02-14T18:11:06.576Z,99072.69
2019-02-14T18:13:33.166Z,99077.19
2019-02-14T18:16:00.702Z,99088.45
2019-02-14T18:18:29.754Z,99091.71
2019-02-14T18:20:58.595Z,99094.63
2019-02-14T18:23:25.732Z,99093.74
2019-02-14T18:25:52.318Z,99099.41
2019-02-14T18:28:21.277Z,99100.59
2019-02-14T18:30:50.946Z,99097.81
2019-02-14T18:33:21.278Z,99093.84
2019-02-14T18:35:49.933Z,99093.84
2019-02-14T18:38:16.580Z,99096.30
2019-02-14T18:40:43.777Z,99101.21
2019-02-14T18:45:58.441Z,99098.98
2019-02-14T18:48:25.606Z,99104.27
2019-02-14T18:50:55.846Z,99106.83
2019-02-14T18:53:23.913Z,99104.67
2019-02-14T18:55:53.206Z,99100.86
2019-02-14T18:58:26.339Z,99097.86
2019-02-14T19:00:50.587Z,99105.23
2019-02-14T19:03:19.506Z,99094.83
2019-02-14T19:05:46.910Z,99102.88
2019-02-14T19:08:16.601Z,99111.61
2019-02-14T19:10:45.640Z,99112.49
2019-02-14T19:13:12.248Z,99115.64
2019-02-14T19:15:44.526Z,99105.50
2019-02-14T19:18:11.086Z,99101.91
2019-02-14T19:20:41.488Z,99103.18
2019-02-14T19:23:08.415Z,99103.48
2019-02-14T19:25:35.123Z,99103.59
2019-02-14T19:28:03.218Z,99102.72
2019-02-14T19:30:32.895Z,99104.26
2019-02-14T19:33:00.493Z,99096.69
2019-02-14T19:35:31.374Z,99097.20
2019-02-14T19:38:01.282Z,99094.89
2019-02-14T19:43:19.220Z,99101.31
2019-02-14T19:45:50.412Z,99102.80
2019-02-14T19:48:18.280Z,99092.05
2019-02-14T19:50:48.951Z,99096.80
2019-02-14T19:53:18.269Z,99088.14
2019-02-14T19:55:48.117Z,99087.33
2019-02-14T19:58:17.476Z,99102.06
2019-02-14T20:00:44.923Z,99099.02
2019-02-14T20:03:11.663Z,99091.42
2019-02-14T20:05:38.426Z,99096.00
2019-02-14T20:08:05.686Z,99098.63
2019-02-14T20:10:34.532Z,99100.67
2019-02-14T20:13:01.155Z,99107.65
2019-02-14T20:15:37.033Z,99113.84
2019-02-14T20:18:01.643Z,99113.81
2019-02-14T20:20:30.280Z,99109.50
2019-02-14T20:22:59.871Z,99103.21
2019-02-14T20:25:27.970Z,99096.81
2019-02-14T20:27:56.073Z,99098.97
2019-02-14T20:30:30.533Z,99089.33
2019-02-14T20:33:04.442Z,99085.08
2019-02-14T20:35:24.801Z,99081.66
2019-02-14T20:37:52.779Z,99086.30
2019-02-14T20:40:23.754Z,99080.44
2019-02-14T20:42:51.677Z,99074.73
2019-02-14T20:45:18.360Z,99082.58
2019-02-14T20:47:46.913Z,99087.55
2019-02-14T20:50:14.836Z,99087.70
2019-02-14T20:52:44.254Z,99093.52
2019-02-14T20:55:12.839Z,99090.86
2019-02-14T20:57:43.964Z,99089.23
2019-02-14T21:00:10.659Z,99095.20
2019-02-14T21:02:37.811Z,99091.84
2019-02-14T21:05:06.256Z,99094.61
2019-02-14T21:07:36.863Z,99094.50
2019-02-14T21:10:04.888Z,99093.53
2019-02-14T21:12:33.066Z,99090.91
2019-02-14T21:15:00.444Z,99083.66
2019-02-14T21:17:31.950Z,99077.51
2019-02-14T21:20:10.851Z,99075.61
2019-02-14T21:22:39.445Z,99075.36
2019-02-14T21:25:12.906Z,99072.97
2019-02-14T21:27:39.249Z,99066.55
2019-02-14T21:30:09.859Z,99063.70
2019-02-14T21:32:40.708Z,99060.02
2019-02-14T21:35:10.470Z,99058.47
2019-02-14T21:37:39.947Z,99051.33
2019-02-14T21:40:11.800Z,99055.50
2019-02-14T21:42:41.538Z,99046.48
2019-02-14T21:45:08.773Z,99048.63
2019-02-14T21:47:38.554Z,99047.27
2019-02-14T21:50:11.030Z,99054.80
2019-02-14T21:52:40.933Z,99049.13
2019-02-14T21:55:26.145Z,99063.23
2019-02-14T21:57:42.551Z,99052.95
2019-02-14T22:00:11.989Z,99044.04
2019-02-14T22:02:38.614Z,99042.14
2019-02-14T22:05:05.270Z,99033.88
2019-02-14T22:07:34.890Z,99027.47
2019-02-14T22:10:00.636Z,99029.98
2019-02-14T22:12:39.927Z,99031.95
2019-02-14T22:14:55.763Z,99029.58
2019-02-14T22:17:22.862Z,99025.98
2019-02-14T22:19:49.806Z,99032.03
2019-02-14T22:22:16.480Z,99034.67
2019-02-14T22:24:43.369Z,99042.73
2019-02-14T22:27:09.963Z,99044.77
2019-02-14T22:29:36.610Z,99050.00
2019-02-14T22:32:03.564Z,99051.92
2019-02-14T22:34:30.216Z,99051.80
2019-02-14T22:36:57.385Z,99057.39
2019-02-14T22:39:26.372Z,99056.06
2019-02-14T22:41:53.096Z,99054.25
2019-02-14T22:44:20.155Z,99054.00
2019-02-14T22:46:46.902Z,99054.50
2019-02-14T22:49:13.764Z,99055.69
2019-02-14T22:51:40.731Z,99052.59
2019-02-14T22:54:07.888Z,99063.40
2019-02-14T22:56:34.858Z,99067.86
2019-02-14T22:59:02.382Z,99053.54
2019-02-14T23:01:29.017Z,99057.23
2019-02-14T23:03:56.151Z,99071.57
2019-02-14T23:06:22.943Z,99062.02
2019-02-14T23:08:50.290Z,99064.97
2019-02-14T23:11:16.934Z,99063.31
2019-02-14T23:13:44.375Z,99074.13
2019-02-14T23:16:11.047Z,99076.70
2019-02-14T23:18:38.265Z,99076.34
2019-02-14T23:21:05.949Z,99075.78
2019-02-14T23:23:32.567Z,99084.45
2019-02-14T23:25:59.341Z,99086.36
2019-02-14T23:28:26.291Z,99083.28
2019-02-14T23:30:53.187Z,99077.05
2019-02-14T23:33:20.629Z,99070.41
2019-02-14T23:35:47.280Z,99081.69
2019-02-14T23:38:14.229Z,99075.33
2019-02-14T23:40:41.227Z,99083.44
2019-02-14T23:43:08.635Z,99088.08
2019-02-14T23:45:35.500Z,99083.12
2019-02-14T23:48:02.720Z,99084.36
2019-02-14T23:50:29.663Z,99084.45
2019-02-14T23:52:56.368Z,99080.80
2019-02-14T23:55:23.054Z,99083.28
2019-02-14T23:57:50.833Z,99084.49
